Terminal Aerodrome Forecast
Issued by NWS

Home | Current Version | Previous Version | Graphics & Text | Print | Product List | Glossary On
Versions: 1 2 3 4 5 6 7 8 9 10 11 12 13 14 15 16 17 18
000
FTUS43 KOAX 191155
TAFCDR
TAF
KCDR 191155Z 1912/2012 09007KT P6SM OVC060
     FM191400 09008KT P6SM -RA OVC030
     FM191900 10015G22KT 4SM -RA SCT010 OVC020
     FM192300 04017G23KT 4SM -SNRA OVC015
     FM200300 03010KT 6SM -SNRA OVC015=

USA.gov is the U.S. government's official web portal to all federal, state and local government web resources and services.